Terminal Aerodrome Forecast
Issued by NWS

Home | Current Version | Previous Version | Text Only | Print | Product List | Glossary On
Versions: 1 2 3 4 5 6 7 8 9 10 11 12 13 14 15
000
FTUS43 KPAH 181100
TAFCGI
TAF
KCGI 181125Z 1812/1912 32004KT 4SM BR FEW250
     FM181400 35010G16KT P6SM SCT040
     FM182300 01004KT P6SM SKC
     FM190600 04002KT 3SM BR SKC
      TEMPO 1908/1912 1/4SM FG VV001=

USA.gov is the U.S. government's official web portal to all federal, state and local government web resources and services.